sensor_id;sensor_type;location;lat;lon;timestamp;pressure;altitude;pressure_sealevel;temperature;humidity
61039;BME280;46919;45.816;3.104;2022-12-24T00:01:16;97898.88;;;12.27;100.00
61039;BME280;46919;45.816;3.104;2022-12-24T00:03:42;97911.94;;;12.30;100.00
61039;BME280;46919;45.816;3.104;2022-12-24T00:06:16;97917.38;;;12.30;100.00
61039;BME280;46919;45.816;3.104;2022-12-24T00:08:42;97924.53;;;12.24;100.00
61039;BME280;46919;45.816;3.104;2022-12-24T00:11:08;97926.31;;;12.19;100.00
61039;BME280;46919;45.816;3.104;2022-12-24T00:13:33;97919.25;;;12.18;100.00
61039;BME280;46919;45.816;3.104;2022-12-24T00:15:59;97929.97;;;12.12;100.00
61039;BME280;46919;45.816;3.104;2022-12-24T00:18:25;97931.00;;;12.11;100.00
61039;BME280;46919;45.816;3.104;2022-12-24T00:20:51;97922.28;;;12.09;100.00
61039;BME280;46919;45.816;3.104;2022-12-24T00:23:16;97918.16;;;12.07;100.00
61039;BME280;46919;45.816;3.104;2022-12-24T00:25:42;97923.25;;;12.15;100.00
61039;BME280;46919;45.816;3.104;2022-12-24T00:28:08;97921.81;;;12.24;100.00
61039;BME280;46919;45.816;3.104;2022-12-24T00:30:34;97921.00;;;12.24;100.00
61039;BME280;46919;45.816;3.104;2022-12-24T00:32:59;97931.84;;;12.24;100.00
61039;BME280;46919;45.816;3.104;2022-12-24T00:35:25;97923.72;;;12.24;100.00
61039;BME280;46919;45.816;3.104;2022-12-24T00:37:50;97926.66;;;12.22;100.00
61039;BME280;46919;45.816;3.104;2022-12-24T00:40:16;97929.84;;;12.19;100.00
61039;BME280;46919;45.816;3.104;2022-12-24T00:42:42;97924.53;;;12.24;100.00
61039;BME280;46919;45.816;3.104;2022-12-24T00:45:08;97921.75;;;12.31;100.00
61039;BME280;46919;45.816;3.104;2022-12-24T00:47:34;97930.69;;;12.31;100.00
61039;BME280;46919;45.816;3.104;2022-12-24T00:49:59;97924.91;;;12.28;100.00
61039;BME280;46919;45.816;3.104;2022-12-24T00:52:25;97936.81;;;12.27;100.00
61039;BME280;46919;45.816;3.104;2022-12-24T00:54:50;97923.38;;;12.20;100.00
61039;BME280;46919;45.816;3.104;2022-12-24T00:57:16;97922.41;;;12.14;100.00
61039;BME280;46919;45.816;3.104;2022-12-24T00:59:41;97911.34;;;12.16;100.00
61039;BME280;46919;45.816;3.104;2022-12-24T01:02:06;97917.13;;;12.20;100.00
61039;BME280;46919;45.816;3.104;2022-12-24T01:04:32;97920.91;;;12.19;100.00
61039;BME280;46919;45.816;3.104;2022-12-24T01:07:16;97921.00;;;12.24;100.00
61039;BME280;46919;45.816;3.104;2022-12-24T01:09:42;97910.75;;;12.26;99.77
61039;BME280;46919;45.816;3.104;2022-12-24T01:12:07;97912.31;;;12.22;99.82
61039;BME280;46919;45.816;3.104;2022-12-24T01:14:32;97911.72;;;12.20;99.39
61039;BME280;46919;45.816;3.104;2022-12-24T01:16:58;97914.53;;;12.25;98.18
61039;BME280;46919;45.816;3.104;2022-12-24T01:19:23;97907.47;;;12.24;97.88
61039;BME280;46919;45.816;3.104;2022-12-24T01:21:49;97909.00;;;12.20;98.24
61039;BME280;46919;45.816;3.104;2022-12-24T01:24:15;97913.59;;;12.19;98.16
61039;BME280;46919;45.816;3.104;2022-12-24T01:26:41;97926.19;;;12.13;98.83
61039;BME280;46919;45.816;3.104;2022-12-24T01:29:06;97927.94;;;12.08;99.05
61039;BME280;46919;45.816;3.104;2022-12-24T01:31:32;97934.53;;;12.00;99.55
61039;BME280;46919;45.816;3.104;2022-12-24T01:33:57;97931.69;;;11.95;100.00
61039;BME280;46919;45.816;3.104;2022-12-24T01:36:22;97921.31;;;11.92;100.00
61039;BME280;46919;45.816;3.104;2022-12-24T01:38:48;97918.00;;;11.90;100.00
61039;BME280;46919;45.816;3.104;2022-12-24T01:41:19;97918.81;;;11.90;100.00
61039;BME280;46919;45.816;3.104;2022-12-24T01:44:17;97899.75;;;11.85;100.00
61039;BME280;46919;45.816;3.104;2022-12-24T01:46:43;97898.19;;;11.77;100.00
61039;BME280;46919;45.816;3.104;2022-12-24T01:49:13;97905.72;;;11.75;100.00
61039;BME280;46919;45.816;3.104;2022-12-24T01:51:45;97900.91;;;11.77;100.00
61039;BME280;46919;45.816;3.104;2022-12-24T01:54:16;97908.69;;;11.86;100.00
61039;BME280;46919;45.816;3.104;2022-12-24T01:56:46;97919.06;;;11.89;98.55
61039;BME280;46919;45.816;3.104;2022-12-24T01:59:15;97919.19;;;11.94;96.56
61039;BME280;46919;45.816;3.104;2022-12-24T02:01:42;97920.97;;;12.00;95.48
61039;BME280;46919;45.816;3.104;2022-12-24T02:06:42;97933.41;;;11.89;96.22
61039;BME280;46919;45.816;3.104;2022-12-24T02:09:07;97932.28;;;11.97;94.61
61039;BME280;46919;45.816;3.104;2022-12-24T02:11:35;97927.47;;;12.11;93.08
61039;BME280;46919;45.816;3.104;2022-12-24T02:14:02;97939.00;;;12.06;93.29
61039;BME280;46919;45.816;3.104;2022-12-24T02:32:27;97898.50;;;12.00;92.55
61039;BME280;46919;45.816;3.104;2022-12-24T02:37:57;97918.97;;;11.95;93.05
61039;BME280;46919;45.816;3.104;2022-12-24T02:40:32;97909.66;;;11.91;93.55
61039;BME280;46919;45.816;3.104;2022-12-24T02:43:04;97900.91;;;11.77;95.11
61039;BME280;46919;45.816;3.104;2022-12-24T02:45:33;97891.91;;;11.65;96.11
61039;BME280;46919;45.816;3.104;2022-12-24T02:48:00;97896.84;;;11.56;96.86
61039;BME280;46919;45.816;3.104;2022-12-24T02:50:26;97898.88;;;11.61;96.72
61039;BME280;46919;45.816;3.104;2022-12-24T02:52:52;97913.56;;;11.65;95.93
61039;BME280;46919;45.816;3.104;2022-12-24T03:04:39;97932.72;;;11.52;96.82
61039;BME280;46919;45.816;3.104;2022-12-24T03:07:13;97906.72;;;11.51;97.19
61039;BME280;46919;45.816;3.104;2022-12-24T03:12:23;97906.72;;;11.51;96.81
61039;BME280;46919;45.816;3.104;2022-12-24T03:14:51;97906.84;;;11.56;96.39
61039;BME280;46919;45.816;3.104;2022-12-24T03:17:17;97911.66;;;11.54;96.43
61039;BME280;46919;45.816;3.104;2022-12-24T03:19:43;97906.47;;;11.52;96.44
61039;BME280;46919;45.816;3.104;2022-12-24T03:22:10;97911.31;;;11.50;96.66
61039;BME280;46919;45.816;3.104;2022-12-24T03:24:36;97901.63;;;11.42;97.24
61039;BME280;46919;45.816;3.104;2022-12-24T03:27:04;97906.22;;;11.42;97.52
61039;BME280;46919;45.816;3.104;2022-12-24T03:29:30;97901.16;;;11.46;97.27
61039;BME280;46919;45.816;3.104;2022-12-24T03:31:59;97897.03;;;11.43;97.41
61039;BME280;46919;45.816;3.104;2022-12-24T03:34:25;97899.06;;;11.48;96.93
61039;BME280;46919;45.816;3.104;2022-12-24T03:36:51;97898.00;;;11.49;96.74
61039;BME280;46919;45.816;3.104;2022-12-24T03:39:16;97896.22;;;11.42;97.67
61039;BME280;46919;45.816;3.104;2022-12-24T03:41:42;97884.06;;;11.33;98.43
61039;BME280;46919;45.816;3.104;2022-12-24T03:44:07;97885.09;;;11.32;98.52
61039;BME280;46919;45.816;3.104;2022-12-24T03:46:33;97880.66;;;11.38;97.92
61039;BME280;46919;45.816;3.104;2022-12-24T03:48:58;97875.59;;;11.41;97.06
61039;BME280;46919;45.816;3.104;2022-12-24T03:51:24;97873.97;;;11.40;96.98
61039;BME280;46919;45.816;3.104;2022-12-24T03:53:55;97867.38;;;11.36;97.25
61039;BME280;46919;45.816;3.104;2022-12-24T03:56:22;97848.44;;;11.36;97.09
61039;BME280;46919;45.816;3.104;2022-12-24T03:58:47;97859.25;;;11.36;97.07
61039;BME280;46919;45.816;3.104;2022-12-24T04:01:13;97869.25;;;11.36;97.09
61039;BME280;46919;45.816;3.104;2022-12-24T04:03:39;97874.50;;;11.31;98.12
61039;BME280;46919;45.816;3.104;2022-12-24T04:06:10;97866.63;;;11.29;98.59
61039;BME280;46919;45.816;3.104;2022-12-24T04:08:35;97870.28;;;11.23;99.15
61039;BME280;46919;45.816;3.104;2022-12-24T04:11:03;97877.66;;;11.16;99.70
61039;BME280;46919;45.816;3.104;2022-12-24T04:13:29;97881.84;;;11.12;100.00
61039;BME280;46919;45.816;3.104;2022-12-24T04:15:57;97884.31;;;11.13;100.00
61039;BME280;46919;45.816;3.104;2022-12-24T04:18:23;97893.75;;;11.11;100.00
61039;BME280;46919;45.816;3.104;2022-12-24T04:20:48;97893.75;;;11.11;100.00
61039;BME280;46919;45.816;3.104;2022-12-24T04:23:13;97897.41;;;11.16;100.00
61039;BME280;46919;45.816;3.104;2022-12-24T04:25:39;97905.28;;;11.18;99.79
61039;BME280;46919;45.816;3.104;2022-12-24T04:28:04;97900.63;;;11.25;98.87
61039;BME280;46919;45.816;3.104;2022-12-24T04:30:29;97913.09;;;11.26;98.91
61039;BME280;46919;45.816;3.104;2022-12-24T04:32:55;97903.19;;;11.20;99.27
61039;BME280;46919;45.816;3.104;2022-12-24T04:35:20;97905.28;;;11.18;100.00
61039;BME280;46919;45.816;3.104;2022-12-24T04:37:46;97905.28;;;11.18;99.69
61039;BME280;46919;45.816;3.104;2022-12-24T04:40:11;97916.84;;;11.25;98.24
61039;BME280;46919;45.816;3.104;2022-12-24T04:42:37;97911.25;;;11.38;95.80
61039;BME280;46919;45.816;3.104;2022-12-24T04:45:02;97907.16;;;11.48;94.42
61039;BME280;46919;45.816;3.104;2022-12-24T04:47:28;97918.13;;;11.53;94.54
61039;BME280;46919;45.816;3.104;2022-12-24T04:49:53;97904.47;;;11.48;94.72
61039;BME280;46919;45.816;3.104;2022-12-24T04:52:19;97919.59;;;11.37;96.27
61039;BME280;46919;45.816;3.104;2022-12-24T04:54:44;97908.28;;;11.28;96.65
61039;BME280;46919;45.816;3.104;2022-12-24T04:57:09;97906.84;;;11.26;97.60
61039;BME280;46919;45.816;3.104;2022-12-24T04:59:35;97920.16;;;11.27;97.57
61039;BME280;46919;45.816;3.104;2022-12-24T05:02:00;97925.56;;;11.27;97.13
61039;BME280;46919;45.816;3.104;2022-12-24T05:04:26;97928.59;;;11.19;98.06
61039;BME280;46919;45.816;3.104;2022-12-24T05:06:51;97928.44;;;11.14;98.45
61039;BME280;46919;45.816;3.104;2022-12-24T05:09:16;97936.56;;;11.14;98.75
61039;BME280;46919;45.816;3.104;2022-12-24T05:11:42;97937.84;;;11.11;98.84
61039;BME280;46919;45.816;3.104;2022-12-24T05:14:07;97935.44;;;11.03;99.60
61039;BME280;46919;45.816;3.104;2022-12-24T05:16:33;97937.56;;;11.01;100.00
61039;BME280;46919;45.816;3.104;2022-12-24T05:18:58;97934.63;;;11.02;100.00
61039;BME280;46919;45.816;3.104;2022-12-24T05:21:24;97942.41;;;11.11;98.93
61039;BME280;46919;45.816;3.104;2022-12-24T05:23:50;97933.84;;;11.14;98.35
61039;BME280;46919;45.816;3.104;2022-12-24T05:29:07;97916.66;;;11.38;96.01
61039;BME280;46919;45.816;3.104;2022-12-24T05:31:33;97914.94;;;11.44;94.16
61039;BME280;46919;45.816;3.104;2022-12-24T05:34:02;97910.78;;;11.41;93.91
61039;BME280;46919;45.816;3.104;2022-12-24T05:36:27;97908.09;;;11.41;94.18
61039;BME280;46919;45.816;3.104;2022-12-24T05:38:53;97930.06;;;11.33;95.48
61039;BME280;46919;45.816;3.104;2022-12-24T05:41:18;97927.81;;;11.30;95.64
61039;BME280;46919;45.816;3.104;2022-12-24T05:43:44;97916.84;;;11.25;96.35
61039;BME280;46919;45.816;3.104;2022-12-24T05:46:13;97902.13;;;11.21;96.80
61039;BME280;46919;45.816;3.104;2022-12-24T05:48:38;97912.03;;;11.27;96.22
61039;BME280;46919;45.816;3.104;2022-12-24T05:51:08;97912.16;;;11.32;95.15
61039;BME280;46919;45.816;3.104;2022-12-24T05:53:35;97913.81;;;11.33;94.94
61039;BME280;46919;45.816;3.104;2022-12-24T05:56:05;97919.91;;;11.29;95.62
61039;BME280;46919;45.816;3.104;2022-12-24T05:58:31;97917.53;;;11.20;96.50
61039;BME280;46919;45.816;3.104;2022-12-24T06:00:57;97909.06;;;11.17;97.21
61039;BME280;46919;45.816;3.104;2022-12-24T06:03:22;97915.88;;;11.19;96.96
61039;BME280;46919;45.816;3.104;2022-12-24T06:05:48;97916.09;;;11.18;97.00
61039;BME280;46919;45.816;3.104;2022-12-24T06:08:13;97932.03;;;11.26;96.12
61039;BME280;46919;45.816;3.104;2022-12-24T06:10:38;97933.09;;;11.25;96.23
61039;BME280;46919;45.816;3.104;2022-12-24T06:13:04;97932.72;;;11.21;97.23
61039;BME280;46919;45.816;3.104;2022-12-24T06:15:29;97929.50;;;11.13;98.48
61039;BME280;46919;45.816;3.104;2022-12-24T06:17:55;97932.19;;;11.13;98.51
61039;BME280;46919;45.816;3.104;2022-12-24T06:20:20;97923.84;;;11.14;98.29
61039;BME280;46919;45.816;3.104;2022-12-24T06:22:45;97925.19;;;11.23;97.07
61039;BME280;46919;45.816;3.104;2022-12-24T06:25:11;97915.03;;;11.37;95.36
61039;BME280;46919;45.816;3.104;2022-12-24T06:27:37;97915.63;;;11.39;95.11
61039;BME280;46919;45.816;3.104;2022-12-24T06:30:02;97900.28;;;11.33;95.92
61039;BME280;46919;45.816;3.104;2022-12-24T06:32:28;97904.28;;;11.31;96.79
61039;BME280;46919;45.816;3.104;2022-12-24T06:34:53;97902.06;;;11.28;97.21
61039;BME280;46919;45.816;3.104;2022-12-24T06:37:19;97912.88;;;11.28;97.30
61039;BME280;46919;45.816;3.104;2022-12-24T06:39:44;97921.00;;;11.28;97.31
61039;BME280;46919;45.816;3.104;2022-12-24T06:42:11;97921.69;;;11.23;97.74
61039;BME280;46919;45.816;3.104;2022-12-24T06:44:37;97931.28;;;11.19;98.33
61039;BME280;46919;45.816;3.104;2022-12-24T06:47:03;97926.91;;;11.18;98.99
61039;BME280;46919;45.816;3.104;2022-12-24T06:49:28;97929.03;;;11.16;99.26
61039;BME280;46919;45.816;3.104;2022-12-24T06:51:53;97924.91;;;11.13;99.19
61039;BME280;46919;45.816;3.104;2022-12-24T06:54:19;97931.47;;;11.05;100.00
61039;BME280;46919;45.816;3.104;2022-12-24T06:56:44;97929.22;;;11.02;100.00
61039;BME280;46919;45.816;3.104;2022-12-24T06:59:10;97934.22;;;10.99;100.00
61039;BME280;46919;45.816;3.104;2022-12-24T07:01:35;97938.16;;;11.03;100.00
61039;BME280;46919;45.816;3.104;2022-12-24T07:04:00;97936.25;;;11.03;100.00
61039;BME280;46919;45.816;3.104;2022-12-24T07:06:28;97931.69;;;11.04;100.00
61039;BME280;46919;45.816;3.104;2022-12-24T07:08:54;97935.66;;;11.01;100.00
61039;BME280;46919;45.816;3.104;2022-12-24T07:11:20;97922.59;;;10.98;100.00
61039;BME280;46919;45.816;3.104;2022-12-24T07:13:46;97913.44;;;10.99;100.00
61039;BME280;46919;45.816;3.104;2022-12-24T07:16:11;97905.09;;;11.01;100.00
61039;BME280;46919;45.816;3.104;2022-12-24T07:18:37;97900.41;;;11.08;100.00
61039;BME280;46919;45.816;3.104;2022-12-24T07:21:05;97892.06;;;11.10;100.00
61039;BME280;46919;45.816;3.104;2022-12-24T07:23:31;97876.31;;;11.06;100.00
61039;BME280;46919;45.816;3.104;2022-12-24T07:26:04;97887.13;;;11.06;100.00
61039;BME280;46919;45.816;3.104;2022-12-24T07:28:30;97902.75;;;11.04;100.00
61039;BME280;46919;45.816;3.104;2022-12-24T07:30:56;97913.00;;;11.02;100.00
61039;BME280;46919;45.816;3.104;2022-12-24T07:33:23;97921.09;;;11.02;100.00
61039;BME280;46919;45.816;3.104;2022-12-24T07:35:48;97922.50;;;11.05;100.00
61039;BME280;46919;45.816;3.104;2022-12-24T07:38:14;97928.59;;;11.00;100.00
61039;BME280;46919;45.816;3.104;2022-12-24T07:40:39;97922.22;;;10.95;100.00
61039;BME280;46919;45.816;3.104;2022-12-24T07:43:04;97916.59;;;10.96;100.00
61039;BME280;46919;45.816;3.104;2022-12-24T07:45:30;97920.34;;;10.95;100.00
61039;BME280;46919;45.816;3.104;2022-12-24T07:47:55;97925.28;;;10.98;100.00
61039;BME280;46919;45.816;3.104;2022-12-24T07:50:21;97923.88;;;10.96;100.00
61039;BME280;46919;45.816;3.104;2022-12-24T07:52:46;97920.56;;;10.94;100.00
61039;BME280;46919;45.816;3.104;2022-12-24T07:55:11;97920.94;;;10.97;100.00
61039;BME280;46919;45.816;3.104;2022-12-24T07:57:37;97930.84;;;11.03;100.00
61039;BME280;46919;45.816;3.104;2022-12-24T08:00:03;97929.94;;;11.10;100.00
61039;BME280;46919;45.816;3.104;2022-12-24T08:02:28;97932.19;;;11.13;100.00
61039;BME280;46919;45.816;3.104;2022-12-24T08:04:54;97933.00;;;11.13;100.00
61039;BME280;46919;45.816;3.104;2022-12-24T08:07:19;97932.06;;;11.08;100.00
61039;BME280;46919;45.816;3.104;2022-12-24T08:09:45;97938.50;;;11.06;100.00
61039;BME280;46919;45.816;3.104;2022-12-24T08:12:10;97943.91;;;11.06;100.00
61039;BME280;46919;45.816;3.104;2022-12-24T08:14:36;97949.09;;;11.08;100.00
61039;BME280;46919;45.816;3.104;2022-12-24T08:17:01;97949.00;;;11.15;100.00
61039;BME280;46919;45.816;3.104;2022-12-24T08:19:27;97949.78;;;11.22;100.00
61039;BME280;46919;45.816;3.104;2022-12-24T08:21:52;97956.00;;;11.22;100.00
61039;BME280;46919;45.816;3.104;2022-12-24T08:24:18;97958.03;;;11.27;100.00
61039;BME280;46919;45.816;3.104;2022-12-24T08:26:43;97954.19;;;11.35;100.00
61039;BME280;46919;45.816;3.104;2022-12-24T08:29:09;97938.31;;;11.38;100.00
61039;BME280;46919;45.816;3.104;2022-12-24T08:31:34;97943.25;;;11.41;100.00
61039;BME280;46919;45.816;3.104;2022-12-24T08:34:06;97941.19;;;11.44;100.00
61039;BME280;46919;45.816;3.104;2022-12-24T08:36:32;97931.63;;;11.41;100.00
61039;BME280;46919;45.816;3.104;2022-12-24T08:38:58;97926.44;;;11.39;100.00
61039;BME280;46919;45.816;3.104;2022-12-24T08:41:28;97935.59;;;11.38;100.00
61039;BME280;46919;45.816;3.104;2022-12-24T08:43:54;97935.38;;;11.40;100.00
61039;BME280;46919;45.816;3.104;2022-12-24T08:46:19;97935.00;;;11.36;100.00
61039;BME280;46919;45.816;3.104;2022-12-24T08:48:45;97926.91;;;11.36;100.00
61039;BME280;46919;45.816;3.104;2022-12-24T08:51:11;97921.84;;;11.40;100.00
61039;BME280;46919;45.816;3.104;2022-12-24T08:53:37;97927.88;;;11.42;100.00
61039;BME280;46919;45.816;3.104;2022-12-24T08:56:04;97924.94;;;11.44;100.00
61039;BME280;46919;45.816;3.104;2022-12-24T08:58:31;97922.13;;;11.50;100.00
61039;BME280;46919;45.816;3.104;2022-12-24T09:00:57;97924.16;;;11.55;100.00
61039;BME280;46919;45.816;3.104;2022-12-24T09:03:22;97918.28;;;11.58;100.00
61039;BME280;46919;45.816;3.104;2022-12-24T09:05:48;97922.63;;;11.59;100.00
61039;BME280;46919;45.816;3.104;2022-12-24T09:08:13;97926.97;;;11.60;100.00
61039;BME280;46919;45.816;3.104;2022-12-24T09:10:39;97935.09;;;11.60;100.00
61039;BME280;46919;45.816;3.104;2022-12-24T09:13:04;97934.66;;;11.63;100.00
61039;BME280;46919;45.816;3.104;2022-12-24T09:15:30;97936.31;;;11.64;100.00
61039;BME280;46919;45.816;3.104;2022-12-24T09:17:55;97942.09;;;11.68;100.00
61039;BME280;46919;45.816;3.104;2022-12-24T09:20:21;97940.94;;;11.75;100.00
61039;BME280;46919;45.816;3.104;2022-12-24T09:22:47;97926.47;;;11.82;100.00
61039;BME280;46919;45.816;3.104;2022-12-24T09:25:12;97934.38;;;11.83;100.00
61039;BME280;46919;45.816;3.104;2022-12-24T09:27:38;97940.13;;;11.87;100.00
61039;BME280;46919;45.816;3.104;2022-12-24T09:30:04;97926.75;;;11.92;100.00
61039;BME280;46919;45.816;3.104;2022-12-24T09:32:30;97932.97;;;11.92;100.00
61039;BME280;46919;45.816;3.104;2022-12-24T09:34:56;97922.75;;;12.06;100.00
61039;BME280;46919;45.816;3.104;2022-12-24T09:37:21;97921.81;;;12.12;100.00
61039;BME280;46919;45.816;3.104;2022-12-24T09:39:47;97922.41;;;12.14;100.00
61039;BME280;46919;45.816;3.104;2022-12-24T09:47:31;97941.75;;;12.18;100.00
61039;BME280;46919;45.816;3.104;2022-12-24T09:50:01;97952.22;;;12.14;100.00
61039;BME280;46919;45.816;3.104;2022-12-24T09:52:34;97954.69;;;12.16;100.00
61039;BME280;46919;45.816;3.104;2022-12-24T09:55:06;97939.88;;;12.19;100.00
61039;BME280;46919;45.816;3.104;2022-12-24T09:57:35;97933.41;;;12.20;100.00
61039;BME280;46919;45.816;3.104;2022-12-24T10:00:04;97938.09;;;12.24;100.00
61039;BME280;46919;45.816;3.104;2022-12-24T10:02:30;97935.53;;;12.29;100.00
61039;BME280;46919;45.816;3.104;2022-12-24T10:04:56;97934.81;;;12.34;100.00
61039;BME280;46919;45.816;3.104;2022-12-24T10:09:59;97941.41;;;12.26;100.00
61039;BME280;46919;45.816;3.104;2022-12-24T10:15:51;97929.41;;;12.34;100.00
61039;BME280;46919;45.816;3.104;2022-12-24T10:23:23;97924.44;;;12.43;100.00
61039;BME280;46919;45.816;3.104;2022-12-24T10:28:53;97916.06;;;12.44;100.00
61039;BME280;46919;45.816;3.104;2022-12-24T10:31:25;97925.38;;;12.48;100.00
61039;BME280;46919;45.816;3.104;2022-12-24T10:33:57;97930.34;;;12.52;100.00
61039;BME280;46919;45.816;3.104;2022-12-24T10:36:28;97932.59;;;12.55;100.00
61039;BME280;46919;45.816;3.104;2022-12-24T10:38:53;97928.66;;;12.62;100.00
61039;BME280;46919;45.816;3.104;2022-12-24T10:41:19;97925.25;;;12.67;99.95
61039;BME280;46919;45.816;3.104;2022-12-24T10:43:46;97914.75;;;12.71;99.57
61039;BME280;46919;45.816;3.104;2022-12-24T10:46:25;97909.56;;;12.69;97.45
61039;BME280;46919;45.816;3.104;2022-12-24T10:48:59;97902.03;;;12.71;97.36
61039;BME280;46919;45.816;3.104;2022-12-24T10:53:59;97896.78;;;12.81;95.57
61039;BME280;46919;45.816;3.104;2022-12-24T10:56:25;97912.13;;;12.87;96.00
61039;BME280;46919;45.816;3.104;2022-12-24T10:58:53;97912.72;;;12.90;95.51
61039;BME280;46919;45.816;3.104;2022-12-24T11:01:42;97914.84;;;12.87;94.19
61039;BME280;46919;45.816;3.104;2022-12-24T11:04:32;97906.22;;;12.91;94.32
61039;BME280;46919;45.816;3.104;2022-12-24T11:07:03;97908.16;;;12.78;91.21
61039;BME280;46919;45.816;3.104;2022-12-24T11:11:56;97907.31;;;12.90;94.23
61039;BME280;46919;45.816;3.104;2022-12-24T11:14:22;97905.25;;;12.97;93.90
61039;BME280;46919;45.816;3.104;2022-12-24T11:16:54;97901.03;;;13.01;93.13
61039;BME280;46919;45.816;3.104;2022-12-24T11:21:58;97894.16;;;13.10;92.03
61039;BME280;46919;45.816;3.104;2022-12-24T11:24:28;97897.91;;;13.09;92.07
61039;BME280;46919;45.816;3.104;2022-12-24T11:27:21;97897.19;;;13.14;91.62
61039;BME280;46919;45.816;3.104;2022-12-24T11:29:42;97896.72;;;13.17;91.50
61039;BME280;46919;45.816;3.104;2022-12-24T11:32:26;97886.66;;;13.29;90.84
61039;BME280;46919;45.816;3.104;2022-12-24T11:34:51;97883.66;;;13.43;90.91
61039;BME280;46919;45.816;3.104;2022-12-24T11:37:22;97880.06;;;13.54;91.02
61039;BME280;46919;45.816;3.104;2022-12-24T11:39:52;97883.59;;;13.54;90.12
61039;BME280;46919;45.816;3.104;2022-12-24T11:42:31;97893.97;;;13.57;89.71
61039;BME280;46919;45.816;3.104;2022-12-24T11:45:00;97897.84;;;13.62;89.72
61039;BME280;46919;45.816;3.104;2022-12-24T11:47:38;97889.47;;;13.63;89.22
61039;BME280;46919;45.816;3.104;2022-12-24T11:50:25;97890.50;;;13.62;88.99
61039;BME280;46919;45.816;3.104;2022-12-24T11:53:01;97878.34;;;13.65;89.55
61039;BME280;46919;45.816;3.104;2022-12-24T11:55:46;97880.50;;;13.63;88.92
61039;BME280;46919;45.816;3.104;2022-12-24T12:00:50;97880.97;;;13.59;89.06
61039;BME280;46919;45.816;3.104;2022-12-24T12:03:32;97872.34;;;13.63;88.45
61039;BME280;46919;45.816;3.104;2022-12-24T12:06:02;97875.06;;;13.63;88.24
61039;BME280;46919;45.816;3.104;2022-12-24T12:08:32;97878.84;;;13.62;88.97
61039;BME280;46919;45.816;3.104;2022-12-24T12:11:12;97873.56;;;13.55;89.80
61039;BME280;46919;45.816;3.104;2022-12-24T12:13:40;97864.97;;;13.46;90.69
61039;BME280;46919;45.816;3.104;2022-12-24T12:16:18;97861.88;;;13.54;91.00
61039;BME280;46919;45.816;3.104;2022-12-24T12:18:51;97860.25;;;13.53;91.36
61039;BME280;46919;45.816;3.104;2022-12-24T12:21:23;97846.09;;;13.51;91.62
61039;BME280;46919;45.816;3.104;2022-12-24T12:23:52;97842.97;;;13.59;91.56
61039;BME280;46919;45.816;3.104;2022-12-24T12:26:27;97849.16;;;13.72;91.00
61039;BME280;46919;45.816;3.104;2022-12-24T12:31:39;97827.72;;;13.92;90.87
61039;BME280;46919;45.816;3.104;2022-12-24T12:37:16;97824.63;;;14.01;89.60
61039;BME280;46919;45.816;3.104;2022-12-24T12:39:43;97825.00;;;14.09;89.37
61039;BME280;46919;45.816;3.104;2022-12-24T12:42:25;97821.28;;;14.16;88.90
61039;BME280;46919;45.816;3.104;2022-12-24T12:57:53;97828.56;;;13.93;88.96
61039;BME280;46919;45.816;3.104;2022-12-24T13:00:22;97831.03;;;13.94;88.78
61039;BME280;46919;45.816;3.104;2022-12-24T13:03:00;97829.69;;;13.97;88.49
61039;BME280;46919;45.816;3.104;2022-12-24T13:05:46;97831.09;;;14.00;88.66
61039;BME280;46919;45.816;3.104;2022-12-24T13:11:04;97828.63;;;13.98;89.28
61039;BME280;46919;45.816;3.104;2022-12-24T13:13:41;97816.97;;;13.98;89.72
61039;BME280;46919;45.816;3.104;2022-12-24T13:21:29;97828.31;;;13.94;90.80
61039;BME280;46919;45.816;3.104;2022-12-24T13:24:18;97821.22;;;13.93;90.47
61039;BME280;46919;45.816;3.104;2022-12-24T13:29:57;97820.75;;;13.97;90.41
61039;BME280;46919;45.816;3.104;2022-12-24T13:34:54;97805.59;;;14.01;90.50
61039;BME280;46919;45.816;3.104;2022-12-24T13:37:34;97802.53;;;13.97;89.77
61039;BME280;46919;45.816;3.104;2022-12-24T13:48:01;97778.06;;;13.97;89.59
61039;BME280;46919;45.816;3.104;2022-12-24T13:50:43;97779.38;;;14.11;89.01
61039;BME280;46919;45.816;3.104;2022-12-24T13:53:22;97774.09;;;14.22;88.28
61039;BME280;46919;45.816;3.104;2022-12-24T13:55:56;97778.78;;;14.26;87.94
61039;BME280;46919;45.816;3.104;2022-12-24T13:58:23;97770.94;;;14.30;87.62
61039;BME280;46919;45.816;3.104;2022-12-24T14:03:40;97777.31;;;14.41;87.25
61039;BME280;46919;45.816;3.104;2022-12-24T14:06:29;97778.09;;;14.58;86.37
61039;BME280;46919;45.816;3.104;2022-12-24T14:09:15;97781.19;;;14.67;86.36
61039;BME280;46919;45.816;3.104;2022-12-24T14:14:34;97777.28;;;14.58;87.20
61039;BME280;46919;45.816;3.104;2022-12-24T14:17:05;97787.81;;;14.54;87.49
61039;BME280;46919;45.816;3.104;2022-12-24T14:19:45;97780.41;;;14.49;87.54
61039;BME280;46919;45.816;3.104;2022-12-24T14:22:24;97784.47;;;14.47;87.56
61039;BME280;46919;45.816;3.104;2022-12-24T14:25:20;97785.19;;;14.59;87.82
61039;BME280;46919;45.816;3.104;2022-12-24T14:27:57;97795.13;;;14.71;87.46
61039;BME280;46919;45.816;3.104;2022-12-24T14:30:26;97796.59;;;14.78;87.50
61039;BME280;46919;45.816;3.104;2022-12-24T14:32:52;97797.66;;;14.77;87.86
61039;BME280;46919;45.816;3.104;2022-12-24T14:35:28;97803.91;;;14.78;87.43
61039;BME280;46919;45.816;3.104;2022-12-24T14:38:01;97797.84;;;14.71;87.67
61039;BME280;46919;45.816;3.104;2022-12-24T14:40:30;97794.53;;;14.68;87.34
61039;BME280;46919;45.816;3.104;2022-12-24T14:45:45;97783.53;;;14.80;86.97
61039;BME280;46919;45.816;3.104;2022-12-24T14:48:33;97791.41;;;14.77;87.04
61039;BME280;46919;45.816;3.104;2022-12-24T14:51:09;97791.41;;;14.77;87.21
61039;BME280;46919;45.816;3.104;2022-12-24T14:53:59;97781.34;;;14.77;86.99
61039;BME280;46919;45.816;3.104;2022-12-24T14:56:28;97781.59;;;14.76;87.24